sensor_id;sensor_type;location;lat;lon;timestamp;pressure;altitude;pressure_sealevel;temperature;humidity
53522;BME280;39398;48.382;9.802;2023-01-10T00:04:10;93401.91;;;2.12;100.00
53522;BME280;39398;48.382;9.802;2023-01-10T00:09:12;93409.16;;;2.00;100.00
53522;BME280;39398;48.382;9.802;2023-01-10T00:14:13;93416.13;;;2.17;100.00
53522;BME280;39398;48.382;9.802;2023-01-10T00:19:16;93428.50;;;2.23;100.00
53522;BME280;39398;48.382;9.802;2023-01-10T00:24:18;93423.81;;;2.27;100.00
53522;BME280;39398;48.382;9.802;2023-01-10T00:29:20;93435.16;;;2.18;100.00
53522;BME280;39398;48.382;9.802;2023-01-10T00:34:24;93447.16;;;2.37;100.00
53522;BME280;39398;48.382;9.802;2023-01-10T00:39:25;93450.63;;;2.19;100.00
53522;BME280;39398;48.382;9.802;2023-01-10T00:44:27;93451.00;;;2.24;100.00
53522;BME280;39398;48.382;9.802;2023-01-10T00:49:29;93448.47;;;2.15;100.00
53522;BME280;39398;48.382;9.802;2023-01-10T00:54:31;93465.94;;;2.22;100.00
53522;BME280;39398;48.382;9.802;2023-01-10T00:59:33;93474.44;;;2.06;100.00
53522;BME280;39398;48.382;9.802;2023-01-10T01:04:36;93485.13;;;1.95;100.00
53522;BME280;39398;48.382;9.802;2023-01-10T01:09:37;93495.38;;;1.61;100.00
53522;BME280;39398;48.382;9.802;2023-01-10T01:14:39;93497.00;;;1.62;100.00
53522;BME280;39398;48.382;9.802;2023-01-10T01:19:42;93512.84;;;1.86;100.00
53522;BME280;39398;48.382;9.802;2023-01-10T01:24:43;93526.78;;;1.95;100.00
53522;BME280;39398;48.382;9.802;2023-01-10T01:29:45;93533.81;;;2.03;100.00
53522;BME280;39398;48.382;9.802;2023-01-10T01:34:48;93544.75;;;2.06;100.00
53522;BME280;39398;48.382;9.802;2023-01-10T01:39:49;93553.66;;;2.04;100.00
53522;BME280;39398;48.382;9.802;2023-01-10T01:45:24;93564.56;;;2.17;100.00
53522;BME280;39398;48.382;9.802;2023-01-10T01:50:35;93573.47;;;2.15;100.00
53522;BME280;39398;48.382;9.802;2023-01-10T01:55:41;93576.44;;;2.20;100.00
53522;BME280;39398;48.382;9.802;2023-01-10T02:00:44;93584.34;;;1.92;100.00
53522;BME280;39398;48.382;9.802;2023-01-10T02:05:47;93592.44;;;2.25;100.00
53522;BME280;39398;48.382;9.802;2023-01-10T02:10:52;93605.53;;;2.15;100.00
53522;BME280;39398;48.382;9.802;2023-01-10T02:15:55;93619.22;;;1.99;100.00
53522;BME280;39398;48.382;9.802;2023-01-10T02:21:10;93624.84;;;1.77;100.00
53522;BME280;39398;48.382;9.802;2023-01-10T02:26:34;93621.47;;;1.67;100.00
53522;BME280;39398;48.382;9.802;2023-01-10T02:32:11;93622.38;;;1.48;100.00
53522;BME280;39398;48.382;9.802;2023-01-10T02:37:20;93633.59;;;1.11;100.00
53522;BME280;39398;48.382;9.802;2023-01-10T02:42:29;93644.81;;;1.11;100.00
53522;BME280;39398;48.382;9.802;2023-01-10T02:47:37;93654.25;;;1.22;100.00
53522;BME280;39398;48.382;9.802;2023-01-10T02:52:39;93667.81;;;1.16;100.00
53522;BME280;39398;48.382;9.802;2023-01-10T02:57:45;93694.47;;;1.08;100.00
53522;BME280;39398;48.382;9.802;2023-01-10T03:03:07;93690.75;;;1.30;100.00
53522;BME280;39398;48.382;9.802;2023-01-10T03:08:22;93698.16;;;1.25;100.00
53522;BME280;39398;48.382;9.802;2023-01-10T03:13:30;93701.59;;;1.16;100.00
53522;BME280;39398;48.382;9.802;2023-01-10T03:18:41;93705.03;;;1.16;100.00
53522;BME280;39398;48.382;9.802;2023-01-10T03:23:44;93716.66;;;1.12;100.00
53522;BME280;39398;48.382;9.802;2023-01-10T03:28:48;93732.81;;;1.06;100.00
53522;BME280;39398;48.382;9.802;2023-01-10T03:33:53;93749.78;;;0.91;100.00
53522;BME280;39398;48.382;9.802;2023-01-10T03:38:57;93760.72;;;1.04;100.00
53522;BME280;39398;48.382;9.802;2023-01-10T03:44:10;93757.03;;;0.97;100.00
53522;BME280;39398;48.382;9.802;2023-01-10T03:49:15;93773.31;;;0.99;100.00
53522;BME280;39398;48.382;9.802;2023-01-10T03:54:17;93778.66;;;1.07;100.00
53522;BME280;39398;48.382;9.802;2023-01-10T03:59:22;93786.59;;;1.15;100.00
53522;BME280;39398;48.382;9.802;2023-01-10T04:04:26;93782.88;;;0.89;100.00
53522;BME280;39398;48.382;9.802;2023-01-10T04:09:27;93799.16;;;1.01;100.00
53522;BME280;39398;48.382;9.802;2023-01-10T04:14:29;93806.00;;;1.02;100.00
53522;BME280;39398;48.382;9.802;2023-01-10T04:19:32;93810.66;;;1.17;100.00
53522;BME280;39398;48.382;9.802;2023-01-10T04:24:33;93814.78;;;1.20;100.00
53522;BME280;39398;48.382;9.802;2023-01-10T04:29:35;93818.19;;;1.21;100.00
53522;BME280;39398;48.382;9.802;2023-01-10T04:34:38;93821.22;;;1.16;100.00
53522;BME280;39398;48.382;9.802;2023-01-10T04:39:39;93841.84;;;1.27;100.00
53522;BME280;39398;48.382;9.802;2023-01-10T04:44:41;93841.47;;;1.32;100.00
53522;BME280;39398;48.382;9.802;2023-01-10T04:49:44;93846.78;;;1.30;100.00
53522;BME280;39398;48.382;9.802;2023-01-10T04:54:45;93865.84;;;1.31;100.00
53522;BME280;39398;48.382;9.802;2023-01-10T04:59:47;93865.00;;;1.40;100.00
53522;BME280;39398;48.382;9.802;2023-01-10T05:04:51;93884.44;;;1.36;100.00
53522;BME280;39398;48.382;9.802;2023-01-10T05:09:52;93888.81;;;1.45;100.00
53522;BME280;39398;48.382;9.802;2023-01-10T05:14:54;93908.94;;;1.43;100.00
53522;BME280;39398;48.382;9.802;2023-01-10T05:19:57;93913.75;;;1.38;100.00
53522;BME280;39398;48.382;9.802;2023-01-10T05:24:58;93935.22;;;1.50;100.00
53522;BME280;39398;48.382;9.802;2023-01-10T05:30:00;93950.56;;;1.53;100.00
53522;BME280;39398;48.382;9.802;2023-01-10T05:35:04;93975.91;;;1.41;100.00
53522;BME280;39398;48.382;9.802;2023-01-10T05:40:07;93970.28;;;1.55;100.00
53522;BME280;39398;48.382;9.802;2023-01-10T05:45:09;93962.09;;;1.60;100.00
53522;BME280;39398;48.382;9.802;2023-01-10T05:50:12;93982.75;;;1.61;100.00
53522;BME280;39398;48.382;9.802;2023-01-10T05:55:14;93987.00;;;1.53;100.00
53522;BME280;39398;48.382;9.802;2023-01-10T06:00:17;94001.50;;;1.55;100.00
53522;BME280;39398;48.382;9.802;2023-01-10T06:05:20;94009.59;;;1.62;100.00
53522;BME280;39398;48.382;9.802;2023-01-10T06:10:21;94015.63;;;1.72;100.00
53522;BME280;39398;48.382;9.802;2023-01-10T06:15:23;94024.38;;;1.42;100.00
53522;BME280;39398;48.382;9.802;2023-01-10T06:20:26;94036.16;;;1.56;100.00
53522;BME280;39398;48.382;9.802;2023-01-10T06:25:28;94059.75;;;1.64;100.00
53522;BME280;39398;48.382;9.802;2023-01-10T06:30:29;94063.03;;;1.66;100.00
53522;BME280;39398;48.382;9.802;2023-01-10T06:35:32;94063.56;;;1.50;100.00
53522;BME280;39398;48.382;9.802;2023-01-10T06:40:34;94079.19;;;1.60;100.00
53522;BME280;39398;48.382;9.802;2023-01-10T06:45:35;94098.22;;;1.60;100.00
53522;BME280;39398;48.382;9.802;2023-01-10T06:50:39;94110.44;;;1.70;100.00
53522;BME280;39398;48.382;9.802;2023-01-10T06:55:40;94111.91;;;1.62;100.00
53522;BME280;39398;48.382;9.802;2023-01-10T07:00:42;94122.09;;;1.35;100.00
53522;BME280;39398;48.382;9.802;2023-01-10T07:05:45;94129.38;;;1.41;100.00
53522;BME280;39398;48.382;9.802;2023-01-10T07:10:46;94142.09;;;1.34;100.00
53522;BME280;39398;48.382;9.802;2023-01-10T07:15:48;94158.56;;;1.45;100.00
53522;BME280;39398;48.382;9.802;2023-01-10T07:20:51;94159.34;;;1.66;100.00
53522;BME280;39398;48.382;9.802;2023-01-10T07:25:52;94170.38;;;1.58;100.00
53522;BME280;39398;48.382;9.802;2023-01-10T07:30:57;94176.16;;;1.62;100.00
53522;BME280;39398;48.382;9.802;2023-01-10T07:36:01;94193.16;;;1.66;100.00
53522;BME280;39398;48.382;9.802;2023-01-10T07:41:03;94195.53;;;1.79;100.00
53522;BME280;39398;48.382;9.802;2023-01-10T07:46:06;94199.19;;;1.67;100.00
53522;BME280;39398;48.382;9.802;2023-01-10T07:51:09;94219.34;;;1.74;100.00
53522;BME280;39398;48.382;9.802;2023-01-10T07:56:10;94234.41;;;1.71;100.00
53522;BME280;39398;48.382;9.802;2023-01-10T08:01:12;94235.44;;;1.89;100.00
53522;BME280;39398;48.382;9.802;2023-01-10T08:06:15;94224.69;;;1.73;100.00
53522;BME280;39398;48.382;9.802;2023-01-10T08:11:17;94212.91;;;1.78;100.00
53522;BME280;39398;48.382;9.802;2023-01-10T08:16:18;94229.00;;;1.93;100.00
53522;BME280;39398;48.382;9.802;2023-01-10T08:21:21;94253.50;;;2.21;100.00
53522;BME280;39398;48.382;9.802;2023-01-10T08:26:23;94271.06;;;2.29;100.00
53522;BME280;39398;48.382;9.802;2023-01-10T08:31:24;94276.91;;;2.12;100.00
53522;BME280;39398;48.382;9.802;2023-01-10T08:36:27;94282.56;;;2.26;100.00
53522;BME280;39398;48.382;9.802;2023-01-10T08:41:29;94292.09;;;2.37;100.00
53522;BME280;39398;48.382;9.802;2023-01-10T08:46:31;94291.53;;;2.33;100.00
53522;BME280;39398;48.382;9.802;2023-01-10T08:51:34;94288.91;;;2.24;100.00
53522;BME280;39398;48.382;9.802;2023-01-10T08:56:35;94307.19;;;2.43;100.00
53522;BME280;39398;48.382;9.802;2023-01-10T09:01:37;94324.47;;;2.44;100.00
53522;BME280;39398;48.382;9.802;2023-01-10T09:06:40;94317.50;;;2.64;100.00
53522;BME280;39398;48.382;9.802;2023-01-10T09:11:41;94331.50;;;2.63;100.00
53522;BME280;39398;48.382;9.802;2023-01-10T09:16:43;94315.47;;;2.68;100.00
53522;BME280;39398;48.382;9.802;2023-01-10T09:21:46;94310.88;;;2.41;100.00
53522;BME280;39398;48.382;9.802;2023-01-10T09:26:47;94331.41;;;2.74;100.00
53522;BME280;39398;48.382;9.802;2023-01-10T09:31:49;94337.72;;;2.72;100.00
53522;BME280;39398;48.382;9.802;2023-01-10T09:36:53;94354.56;;;2.68;100.00
53522;BME280;39398;48.382;9.802;2023-01-10T09:42:04;94371.03;;;2.59;100.00
53522;BME280;39398;48.382;9.802;2023-01-10T09:47:14;94365.47;;;2.52;100.00
53522;BME280;39398;48.382;9.802;2023-01-10T09:52:26;94374.53;;;2.48;100.00
53522;BME280;39398;48.382;9.802;2023-01-10T09:57:30;94383.44;;;2.45;100.00
53522;BME280;39398;48.382;9.802;2023-01-10T10:02:33;94391.72;;;2.60;100.00
53522;BME280;39398;48.382;9.802;2023-01-10T10:07:38;94395.13;;;2.51;100.00
53522;BME280;39398;48.382;9.802;2023-01-10T10:12:43;94394.38;;;2.39;100.00
53522;BME280;39398;48.382;9.802;2023-01-10T10:17:54;94384.16;;;2.26;100.00
53522;BME280;39398;48.382;9.802;2023-01-10T10:23:15;94378.41;;;2.23;100.00
53522;BME280;39398;48.382;9.802;2023-01-10T10:34:01;94370.97;;;2.18;100.00
53522;BME280;39398;48.382;9.802;2023-01-10T10:39:12;94377.28;;;2.16;100.00
53522;BME280;39398;48.382;9.802;2023-01-10T10:44:27;94369.94;;;2.30;100.00
53522;BME280;39398;48.382;9.802;2023-01-10T10:49:37;94375.63;;;2.45;100.00
53522;BME280;39398;48.382;9.802;2023-01-10T10:54:43;94382.84;;;2.32;100.00
53522;BME280;39398;48.382;9.802;2023-01-10T10:59:48;94386.09;;;2.24;100.00
53522;BME280;39398;48.382;9.802;2023-01-10T11:04:51;94395.34;;;2.38;100.00
53522;BME280;39398;48.382;9.802;2023-01-10T11:09:56;94388.72;;;2.65;100.00
53522;BME280;39398;48.382;9.802;2023-01-10T11:14:58;94374.38;;;2.40;100.00
53522;BME280;39398;48.382;9.802;2023-01-10T11:20:02;94386.66;;;2.59;100.00
53522;BME280;39398;48.382;9.802;2023-01-10T11:25:13;94377.13;;;2.78;100.00
53522;BME280;39398;48.382;9.802;2023-01-10T11:30:19;94373.94;;;2.75;100.00
53522;BME280;39398;48.382;9.802;2023-01-10T11:35:25;94374.09;;;2.83;100.00
53522;BME280;39398;48.382;9.802;2023-01-10T11:40:29;94371.09;;;2.78;100.00
53522;BME280;39398;48.382;9.802;2023-01-10T11:45:31;94369.53;;;2.66;100.00
53522;BME280;39398;48.382;9.802;2023-01-10T11:50:35;94366.75;;;3.17;100.00
53522;BME280;39398;48.382;9.802;2023-01-10T11:55:45;94354.53;;;3.18;100.00
53522;BME280;39398;48.382;9.802;2023-01-10T12:00:48;94364.16;;;3.46;100.00
53522;BME280;39398;48.382;9.802;2023-01-10T12:05:51;94354.94;;;3.62;100.00
53522;BME280;39398;48.382;9.802;2023-01-10T12:11:03;94353.16;;;3.53;100.00
53522;BME280;39398;48.382;9.802;2023-01-10T12:16:16;94348.63;;;3.74;100.00
53522;BME280;39398;48.382;9.802;2023-01-10T12:21:22;94357.28;;;3.75;100.00
53522;BME280;39398;48.382;9.802;2023-01-10T12:26:29;94345.47;;;3.70;100.00
53522;BME280;39398;48.382;9.802;2023-01-10T12:31:31;94334.16;;;3.80;100.00
53522;BME280;39398;48.382;9.802;2023-01-10T12:36:40;94342.16;;;3.78;100.00
53522;BME280;39398;48.382;9.802;2023-01-10T12:41:52;94325.88;;;3.94;100.00
53522;BME280;39398;48.382;9.802;2023-01-10T12:47:00;94334.69;;;4.03;100.00
53522;BME280;39398;48.382;9.802;2023-01-10T12:52:13;94321.91;;;4.00;100.00
53522;BME280;39398;48.382;9.802;2023-01-10T12:57:22;94326.88;;;3.83;100.00
53522;BME280;39398;48.382;9.802;2023-01-10T13:02:27;94332.53;;;3.69;100.00
53522;BME280;39398;48.382;9.802;2023-01-10T13:07:33;94329.94;;;3.59;100.00
53522;BME280;39398;48.382;9.802;2023-01-10T13:12:39;94328.22;;;3.97;100.00
53522;BME280;39398;48.382;9.802;2023-01-10T13:17:45;94323.03;;;3.87;96.09
53522;BME280;39398;48.382;9.802;2023-01-10T13:22:49;94326.00;;;4.12;97.44
53522;BME280;39398;48.382;9.802;2023-01-10T13:27:56;94320.59;;;4.13;96.88
53522;BME280;39398;48.382;9.802;2023-01-10T13:33:05;94325.88;;;4.04;95.18
53522;BME280;39398;48.382;9.802;2023-01-10T13:38:16;94317.34;;;4.02;88.37
53522;BME280;39398;48.382;9.802;2023-01-10T13:43:37;94316.78;;;4.08;86.74
53522;BME280;39398;48.382;9.802;2023-01-10T13:48:40;94317.16;;;4.23;87.58
53522;BME280;39398;48.382;9.802;2023-01-10T13:53:57;94320.19;;;4.08;79.26
53522;BME280;39398;48.382;9.802;2023-01-10T13:59:01;94321.38;;;3.86;78.00
53522;BME280;39398;48.382;9.802;2023-01-10T14:04:03;94323.59;;;3.81;77.89
53522;BME280;39398;48.382;9.802;2023-01-10T14:09:32;94337.34;;;3.83;77.44
53522;BME280;39398;48.382;9.802;2023-01-10T14:14:39;94332.63;;;3.96;79.17
53522;BME280;39398;48.382;9.802;2023-01-10T14:19:42;94343.63;;;3.90;79.57
53522;BME280;39398;48.382;9.802;2023-01-10T14:24:49;94335.22;;;4.06;78.44
53522;BME280;39398;48.382;9.802;2023-01-10T14:29:56;94343.00;;;3.49;77.85
53522;BME280;39398;48.382;9.802;2023-01-10T14:35:00;94337.34;;;3.83;82.02
53522;BME280;39398;48.382;9.802;2023-01-10T14:40:05;94336.22;;;3.86;79.91
53522;BME280;39398;48.382;9.802;2023-01-10T14:45:19;94334.72;;;3.83;79.44
53522;BME280;39398;48.382;9.802;2023-01-10T14:50:26;94330.44;;;3.82;80.03
53522;BME280;39398;48.382;9.802;2023-01-10T14:55:28;94335.53;;;3.93;82.87
53522;BME280;39398;48.382;9.802;2023-01-10T15:00:33;94324.91;;;3.95;80.87
53522;BME280;39398;48.382;9.802;2023-01-10T15:05:44;94321.81;;;3.72;82.23
53522;BME280;39398;48.382;9.802;2023-01-10T15:10:46;94319.09;;;3.64;84.20
53522;BME280;39398;48.382;9.802;2023-01-10T15:15:51;94316.75;;;3.61;82.31
53522;BME280;39398;48.382;9.802;2023-01-10T15:20:53;94312.66;;;3.48;83.41
53522;BME280;39398;48.382;9.802;2023-01-10T15:25:57;94312.78;;;3.47;84.21
53522;BME280;39398;48.382;9.802;2023-01-10T15:31:03;94303.16;;;3.38;85.30
53522;BME280;39398;48.382;9.802;2023-01-10T15:36:11;94293.44;;;3.11;86.19
53522;BME280;39398;48.382;9.802;2023-01-10T15:41:16;94290.81;;;3.11;89.48
53522;BME280;39398;48.382;9.802;2023-01-10T15:46:21;94280.78;;;3.16;90.94
53522;BME280;39398;48.382;9.802;2023-01-10T15:51:26;94283.13;;;2.99;92.04
53522;BME280;39398;48.382;9.802;2023-01-10T15:56:31;94274.34;;;3.00;90.86
53522;BME280;39398;48.382;9.802;2023-01-10T16:01:34;94273.09;;;2.95;91.93
53522;BME280;39398;48.382;9.802;2023-01-10T16:06:36;94264.84;;;2.90;92.48
53522;BME280;39398;48.382;9.802;2023-01-10T16:11:40;94265.66;;;2.71;95.30
53522;BME280;39398;48.382;9.802;2023-01-10T16:16:47;94251.25;;;2.67;97.31
53522;BME280;39398;48.382;9.802;2023-01-10T16:21:51;94243.16;;;2.60;96.92
53522;BME280;39398;48.382;9.802;2023-01-10T16:26:54;94243.25;;;2.49;100.00
53522;BME280;39398;48.382;9.802;2023-01-10T16:31:57;94250.41;;;2.37;100.00
53522;BME280;39398;48.382;9.802;2023-01-10T16:36:59;94253.56;;;2.50;100.00
53522;BME280;39398;48.382;9.802;2023-01-10T16:42:00;94249.56;;;2.37;100.00
53522;BME280;39398;48.382;9.802;2023-01-10T16:47:04;94239.16;;;2.46;100.00
53522;BME280;39398;48.382;9.802;2023-01-10T16:52:11;94250.13;;;2.40;100.00
53522;BME280;39398;48.382;9.802;2023-01-10T16:57:13;94247.00;;;2.46;100.00
53522;BME280;39398;48.382;9.802;2023-01-10T17:02:16;94247.91;;;2.36;100.00
53522;BME280;39398;48.382;9.802;2023-01-10T17:07:18;94246.28;;;2.35;100.00
53522;BME280;39398;48.382;9.802;2023-01-10T17:12:19;94243.09;;;2.31;100.00
53522;BME280;39398;48.382;9.802;2023-01-10T17:17:22;94240.50;;;2.31;100.00
53522;BME280;39398;48.382;9.802;2023-01-10T17:22:24;94233.31;;;2.14;100.00
53522;BME280;39398;48.382;9.802;2023-01-10T17:27:25;94229.34;;;2.09;100.00
53522;BME280;39398;48.382;9.802;2023-01-10T17:32:28;94223.03;;;2.12;100.00
53522;BME280;39398;48.382;9.802;2023-01-10T17:37:30;94215.78;;;2.16;100.00
53522;BME280;39398;48.382;9.802;2023-01-10T17:42:32;94214.13;;;2.05;100.00
53522;BME280;39398;48.382;9.802;2023-01-10T17:47:34;94212.16;;;1.97;100.00
53522;BME280;39398;48.382;9.802;2023-01-10T17:52:37;94209.16;;;1.92;100.00
53522;BME280;39398;48.382;9.802;2023-01-10T17:57:38;94195.31;;;1.92;100.00
53522;BME280;39398;48.382;9.802;2023-01-10T18:02:41;94196.22;;;1.81;100.00
53522;BME280;39398;48.382;9.802;2023-01-10T18:07:42;94188.97;;;1.84;100.00
53522;BME280;39398;48.382;9.802;2023-01-10T18:12:44;94178.09;;;1.70;100.00
53522;BME280;39398;48.382;9.802;2023-01-10T18:17:47;94191.13;;;1.70;100.00
53522;BME280;39398;48.382;9.802;2023-01-10T18:22:49;94184.31;;;1.88;100.00
53522;BME280;39398;48.382;9.802;2023-01-10T18:27:50;94188.84;;;1.86;100.00
53522;BME280;39398;48.382;9.802;2023-01-10T18:32:53;94188.56;;;1.79;100.00
53522;BME280;39398;48.382;9.802;2023-01-10T18:37:55;94192.63;;;1.72;100.00
53522;BME280;39398;48.382;9.802;2023-01-10T18:42:57;94179.31;;;1.66;100.00
53522;BME280;39398;48.382;9.802;2023-01-10T18:48:00;94184.25;;;1.69;100.00
53522;BME280;39398;48.382;9.802;2023-01-10T18:53:02;94177.56;;;1.66;100.00
53522;BME280;39398;48.382;9.802;2023-01-10T18:58:04;94186.81;;;1.59;100.00
53522;BME280;39398;48.382;9.802;2023-01-10T19:03:07;94179.81;;;1.59;100.00
53522;BME280;39398;48.382;9.802;2023-01-10T19:08:08;94172.03;;;1.59;100.00
53522;BME280;39398;48.382;9.802;2023-01-10T19:13:10;94166.28;;;1.66;100.00
53522;BME280;39398;48.382;9.802;2023-01-10T19:18:13;94169.34;;;1.71;100.00
53522;BME280;39398;48.382;9.802;2023-01-10T19:23:15;94155.66;;;1.78;100.00
53522;BME280;39398;48.382;9.802;2023-01-10T19:28:16;94137.03;;;1.73;100.00
53522;BME280;39398;48.382;9.802;2023-01-10T19:33:19;94129.19;;;1.63;100.00
53522;BME280;39398;48.382;9.802;2023-01-10T19:38:21;94131.41;;;1.78;100.00
53522;BME280;39398;48.382;9.802;2023-01-10T19:43:22;94119.75;;;1.72;100.00
53522;BME280;39398;48.382;9.802;2023-01-10T19:48:25;94125.25;;;1.79;100.00
53522;BME280;39398;48.382;9.802;2023-01-10T19:53:26;94116.59;;;1.78;100.00
53522;BME280;39398;48.382;9.802;2023-01-10T19:58:28;94119.38;;;1.86;100.00
53522;BME280;39398;48.382;9.802;2023-01-10T20:03:31;94111.84;;;1.93;100.00
53522;BME280;39398;48.382;9.802;2023-01-10T20:08:33;94121.84;;;1.98;100.00
53522;BME280;39398;48.382;9.802;2023-01-10T20:13:37;94112.28;;;1.98;100.00
53522;BME280;39398;48.382;9.802;2023-01-10T20:18:40;94119.66;;;2.03;100.00
53522;BME280;39398;48.382;9.802;2023-01-10T20:23:42;94118.44;;;2.07;100.00
53522;BME280;39398;48.382;9.802;2023-01-10T20:28:45;94117.78;;;2.05;100.00
53522;BME280;39398;48.382;9.802;2023-01-10T20:33:48;94128.31;;;2.03;100.00
53522;BME280;39398;48.382;9.802;2023-01-10T20:38:51;94129.25;;;1.93;100.00
53522;BME280;39398;48.382;9.802;2023-01-10T20:43:53;94112.84;;;2.02;100.00
53522;BME280;39398;48.382;9.802;2023-01-10T20:48:56;94109.41;;;1.92;100.00
53522;BME280;39398;48.382;9.802;2023-01-10T20:54:00;94115.97;;;1.96;100.00
53522;BME280;39398;48.382;9.802;2023-01-10T20:59:02;94109.94;;;1.85;100.00
53522;BME280;39398;48.382;9.802;2023-01-10T21:04:06;94112.25;;;1.89;100.00
53522;BME280;39398;48.382;9.802;2023-01-10T21:09:08;94119.81;;;1.92;100.00
53522;BME280;39398;48.382;9.802;2023-01-10T21:14:10;94123.09;;;1.94;100.00
53522;BME280;39398;48.382;9.802;2023-01-10T21:19:13;94125.41;;;1.87;100.00
53522;BME280;39398;48.382;9.802;2023-01-10T21:24:15;94113.63;;;1.93;100.00
53522;BME280;39398;48.382;9.802;2023-01-10T21:29:17;94107.06;;;1.89;100.00
53522;BME280;39398;48.382;9.802;2023-01-10T21:34:19;94105.00;;;1.92;100.00
53522;BME280;39398;48.382;9.802;2023-01-10T21:39:21;94101.97;;;1.87;100.00
53522;BME280;39398;48.382;9.802;2023-01-10T21:44:24;94095.50;;;1.81;100.00
53522;BME280;39398;48.382;9.802;2023-01-10T21:49:27;94100.91;;;1.99;100.00
53522;BME280;39398;48.382;9.802;2023-01-10T21:54:28;94095.69;;;1.90;100.00
53522;BME280;39398;48.382;9.802;2023-01-10T21:59:30;94091.44;;;1.89;100.00
53522;BME280;39398;48.382;9.802;2023-01-10T22:04:33;94098.72;;;1.95;100.00
53522;BME280;39398;48.382;9.802;2023-01-10T22:09:35;94105.00;;;1.92;100.00
53522;BME280;39398;48.382;9.802;2023-01-10T22:14:37;94091.97;;;1.73;100.00
53522;BME280;39398;48.382;9.802;2023-01-10T22:19:40;94100.44;;;1.84;100.00
53522;BME280;39398;48.382;9.802;2023-01-10T22:24:42;94094.41;;;1.74;100.00
53522;BME280;39398;48.382;9.802;2023-01-10T22:29:44;94094.56;;;1.73;100.00
53522;BME280;39398;48.382;9.802;2023-01-10T22:34:47;94085.97;;;2.01;100.00
53522;BME280;39398;48.382;9.802;2023-01-10T22:39:49;94083.00;;;1.66;100.00
53522;BME280;39398;48.382;9.802;2023-01-10T22:44:50;94069.88;;;1.57;100.00
53522;BME280;39398;48.382;9.802;2023-01-10T22:49:53;94065.22;;;1.61;100.00
53522;BME280;39398;48.382;9.802;2023-01-10T22:54:55;94051.94;;;1.64;100.00
53522;BME280;39398;48.382;9.802;2023-01-10T22:59:56;94050.41;;;1.61;100.00
53522;BME280;39398;48.382;9.802;2023-01-10T23:04:59;94045.47;;;1.58;100.00
53522;BME280;39398;48.382;9.802;2023-01-10T23:10:01;94033.28;;;1.59;100.00
53522;BME280;39398;48.382;9.802;2023-01-10T23:15:03;94026.59;;;1.56;100.00
53522;BME280;39398;48.382;9.802;2023-01-10T23:20:07;94023.03;;;1.57;100.00
53522;BME280;39398;48.382;9.802;2023-01-10T23:25:09;94018.78;;;1.56;100.00
53522;BME280;39398;48.382;9.802;2023-01-10T23:30:11;94013.03;;;1.62;100.00
53522;BME280;39398;48.382;9.802;2023-01-10T23:35:14;94014.97;;;1.60;100.00
53522;BME280;39398;48.382;9.802;2023-01-10T23:40:16;94012.63;;;1.57;100.00
53522;BME280;39398;48.382;9.802;2023-01-10T23:45:18;94003.03;;;1.68;100.00
53522;BME280;39398;48.382;9.802;2023-01-10T23:50:21;93994.41;;;1.67;100.00
53522;BME280;39398;48.382;9.802;2023-01-10T23:55:22;93993.59;;;1.67;100.00
